Terminal Aerodrome Forecast
Issued by NWS

Home | Current Version | Previous Version | Text Only | Print | Product List | Glossary On
Versions: 1 2 3 4 5 6 7 8 9 10 11 12 13 14
946
FTUS44 KBMX 230845 AAA
TAFMGM
TAF AMD
KMGM 230845Z 2309/2406 22004KT 5SM HZ SCT250
      TEMPO 2309/2312 2SM BR SCT012
     FM231500 24005KT P6SM SCT050
     FM232200 21007KT P6SM VCTS BKN050CB=

USA.gov is the U.S. government's official web portal to all federal, state and local government web resources and services.